Terminal Aerodrome Forecast
Issued by NWS Boise, ID

Home | Current Version | Previous Version | Text Only | Print | Product List | Glossary On
Versions: 1 2 3 4 5 6 7 8 9 10 11 12 13 14 15 16
000
FTUS45 KBOI 181732
TAFBNO
TAF
KBNO 181732Z 1818/1918 23015G25KT P6SM VCSH SCT025 SCT050
      TEMPO 1818/1822 2SM -SHSN OVC025
     FM182200 23015G25KT P6SM VCSH SCT025 BKN035
      TEMPO 1822/1902 3SM -SHSN OVC025
     FM190400 25010KT P6SM SCT030 SCT050
     FM191000 25013G23KT P6SM VCSH BKN050=

USA.gov is the U.S. government's official web portal to all federal, state and local government web resources and services.